Time;durP1;ratioP1;P1;durP2;ratioP2;P2;SDS_P1;SDS_P2;PMS_P1;PMS_P2;Temp;Humidity;BMP_temperature;BMP_pressure;BME280_temperature;BME280_humidity;BME280_pressure;Samples;Min_cycle;Max_cycle;Signal;HPM_P1;HPM_P2
2022/05/21 00:00:35;;;;;;;5.10;4.55;;;18.90;99.90;;;;;;5008265;28;20186;-60
2022/05/21 00:03:02;;;;;;;5.43;4.90;;;18.90;99.90;;;;;;5010587;28;20183;-60
2022/05/21 00:05:29;;;;;;;5.40;5.00;;;18.80;99.90;;;;;;5010973;28;20184;-60
2022/05/21 00:07:56;;;;;;;4.95;4.47;;;18.90;99.90;;;;;;5010012;28;20198;-60
2022/05/21 00:10:23;;;;;;;5.38;4.88;;;18.80;99.90;;;;;;5009893;28;20183;-60
2022/05/21 00:12:50;;;;;;;5.45;5.05;;;18.80;99.90;;;;;;5010057;28;20183;-60
2022/05/21 00:15:18;;;;;;;6.05;5.50;;;18.80;99.90;;;;;;5009794;28;20183;-60
2022/05/21 00:17:44;;;;;;;4.93;4.43;;;18.80;99.90;;;;;;5008880;28;20260;-60
2022/05/21 00:20:47;;;;;;;9.53;5.80;;;18.80;99.90;;;;;;5008997;28;20191;-60
2022/05/21 00:22:57;;;;;;;5.28;4.88;;;18.70;99.90;;;;;;5008135;28;20460;-60
2022/05/21 00:25:23;;;;;;;6.55;4.93;;;18.70;99.90;;;;;;5003919;28;20680;-60
2022/05/21 00:27:50;;;;;;;5.40;5.00;;;18.60;99.90;;;;;;5009286;28;20290;-60
2022/05/21 00:30:16;;;;;;;4.90;4.60;;;18.60;99.90;;;;;;5009981;28;20266;-60
2022/05/21 00:32:42;;;;;;;5.10;4.70;;;18.50;99.90;;;;;;5008929;28;20204;-60
2022/05/21 00:35:08;;;;;;;5.10;4.70;;;18.50;99.90;;;;;;5010574;28;20278;-60
2022/05/21 00:37:34;;;;;;;5.75;5.25;;;18.50;99.90;;;;;;5008824;28;20238;-61
2022/05/21 00:40:00;;;;;;;5.27;4.77;;;18.40;99.90;;;;;;5008232;28;20229;-61
2022/05/21 00:42:25;;;;;;;5.50;5.00;;;18.40;99.90;;;;;;5005254;28;20215;-60
2022/05/21 00:44:51;;;;;;;5.10;4.70;;;18.30;99.90;;;;;;5009528;28;20179;-61
2022/05/21 00:47:17;;;;;;;4.87;4.47;;;18.30;99.90;;;;;;5009982;28;20203;-60
2022/05/21 00:49:44;;;;;;;7.47;4.67;;;18.30;99.90;;;;;;5010496;28;20182;-60
2022/05/21 00:52:19;;;;;;;5.28;4.75;;;18.20;99.90;;;;;;5008297;28;20316;-60
2022/05/21 00:54:52;;;;;;;4.50;4.20;;;18.20;99.90;;;;;;5007806;28;20810;-60
2022/05/21 00:57:21;;;;;;;5.30;4.90;;;18.10;99.90;;;;;;5004385;28;20226;-60
2022/05/21 00:59:51;;;;;;;6.30;4.43;;;18.00;99.90;;;;;;5008106;28;20325;-60
2022/05/21 01:02:32;;;;;;;4.75;4.30;;;17.90;99.90;;;;;;5005300;28;20210;-60
2022/05/21 01:05:00;;;;;;;4.50;4.10;;;17.90;99.90;;;;;;5010547;28;20197;-60
2022/05/21 01:07:26;;;;;;;4.60;4.30;;;17.90;99.90;;;;;;5010017;28;20210;-60
2022/05/21 01:09:54;;;;;;;3.95;3.72;;;17.70;99.90;;;;;;5011731;28;20557;-60
2022/05/21 01:12:24;;;;;;;4.10;3.80;;;17.80;99.90;;;;;;5014325;28;20221;-60
2022/05/21 01:14:52;;;;;;;4.50;4.10;;;17.80;99.90;;;;;;5012981;28;20186;-61
2022/05/21 01:17:20;;;;;;;4.75;4.03;;;17.70;99.90;;;;;;5013097;28;20234;-61
2022/05/21 01:20:02;;;;;;;3.50;3.20;;;17.80;99.90;;;;;;5012426;28;20660;-60
2022/05/21 01:22:58;;;;;;;3.75;3.45;;;17.70;99.90;;;;;;5013186;28;20214;-60
2022/05/21 01:25:28;;;;;;;4.22;3.88;;;17.60;99.90;;;;;;5006200;28;20546;-60
2022/05/21 01:27:54;;;;;;;3.70;3.40;;;17.60;99.90;;;;;;5013650;28;20951;-59
2022/05/21 01:30:30;;;;;;;4.73;3.60;;;17.50;99.90;;;;;;5013618;28;20262;-60
2022/05/21 01:32:55;;;;;;;4.00;3.58;;;17.70;99.90;;;;;;5012430;28;20445;-60
2022/05/21 01:35:21;;;;;;;3.20;2.90;;;17.60;99.90;;;;;;5013993;28;20198;-60
2022/05/21 01:37:48;;;;;;;3.47;3.23;;;17.50;99.90;;;;;;5012501;28;20215;-60
2022/05/21 01:40:17;;;;;;;3.25;3.00;;;17.70;99.90;;;;;;5012183;28;20210;-60
2022/05/21 01:42:43;;;;;;;3.17;2.97;;;17.70;99.90;;;;;;5011473;28;20218;-60
2022/05/21 01:45:09;;;;;;;3.20;2.90;;;17.50;99.90;;;;;;5013255;28;20551;-61
2022/05/21 01:47:37;;;;;;;3.25;3.05;;;17.60;99.90;;;;;;5013071;28;20492;-60
2022/05/21 01:50:03;;;;;;;4.22;3.00;;;17.50;99.90;;;;;;5007448;28;20245;-60
2022/05/21 01:52:29;;;;;;;3.47;2.95;;;17.80;99.90;;;;;;5013502;28;20190;-61
2022/05/21 01:54:55;;;;;;;3.50;3.13;;;17.40;99.90;;;;;;5012781;28;20186;-61
2022/05/21 01:57:21;;;;;;;3.03;2.80;;;17.40;99.90;;;;;;5012335;28;20695;-60
2022/05/21 01:59:47;;;;;;;3.58;3.33;;;17.50;99.90;;;;;;5011619;28;21000;-60
2022/05/21 02:02:13;;;;;;;2.93;2.73;;;17.40;99.90;;;;;;5012476;28;20215;-60
2022/05/21 02:04:38;;;;;;;3.40;3.10;;;17.20;99.90;;;;;;5013612;28;20186;-60
2022/05/21 02:07:04;;;;;;;3.00;2.80;;;17.40;99.90;;;;;;5012638;28;20557;-60
2022/05/21 02:09:30;;;;;;;3.30;3.00;;;17.20;99.90;;;;;;5012356;28;20539;-60
2022/05/21 02:11:56;;;;;;;4.17;3.70;;;17.10;99.90;;;;;;5014630;28;20499;-61
2022/05/21 02:14:21;;;;;;;3.10;2.90;;;17.00;99.90;;;;;;5012984;28;20238;-60
2022/05/21 02:16:47;;;;;;;4.00;3.70;;;17.00;99.90;;;;;;5011018;28;20445;-61
2022/05/21 02:19:13;;;;;;;3.67;3.37;;;17.20;99.90;;;;;;5011759;28;20281;-60
2022/05/21 02:21:40;;;;;;;3.40;3.20;;;17.00;99.90;;;;;;5010728;28;20215;-60
2022/05/21 02:24:08;;;;;;;3.75;3.45;;;17.10;99.90;;;;;;5012235;28;20191;-60
2022/05/21 02:26:38;;;;;;;3.65;3.35;;;17.10;99.90;;;;;;5012912;28;20187;-60
2022/05/21 02:29:05;;;;;;;3.42;3.13;;;17.00;99.90;;;;;;5011928;28;20213;-60
2022/05/21 02:31:31;;;;;;;3.47;3.17;;;16.80;99.90;;;;;;5010060;28;20565;-60
2022/05/21 02:33:57;;;;;;;7.82;3.30;;;16.80;99.90;;;;;;5012836;28;20510;-60
2022/05/21 02:39:25;;;;;;;3.50;3.20;;;16.90;99.90;;;;;;5018028;28;20244;-60
2022/05/21 02:39:30;;;;;;;4.28;3.97;;;16.80;99.90;;;;;;5011304;28;20206;-60
2022/05/21 02:41:57;;;;;;;5.53;3.50;;;16.60;99.90;;;;;;5010096;28;20248;-60
2022/05/21 02:44:23;;;;;;;3.95;3.65;;;16.30;99.90;;;;;;5012152;28;20190;-60
2022/05/21 02:46:49;;;;;;;3.73;3.40;;;16.40;99.90;;;;;;5012166;28;20245;-60
2022/05/21 02:49:15;;;;;;;3.40;3.20;;;16.30;99.90;;;;;;5012830;28;20451;-60
2022/05/21 02:51:41;;;;;;;3.73;3.43;;;15.80;99.90;;;;;;5011953;28;20195;-61
2022/05/21 02:54:07;;;;;;;4.07;3.70;;;16.20;99.90;;;;;;5026308;28;20218;-61
2022/05/21 02:56:35;;;;;;;4.43;3.70;;;16.20;99.90;;;;;;5011855;28;20488;-61
2022/05/21 02:59:01;;;;;;;3.33;3.03;;;16.10;99.90;;;;;;5011266;28;20194;-60
2022/05/21 03:01:26;;;;;;;3.30;3.10;;;16.10;99.90;;;;;;5009980;28;20218;-61
2022/05/21 03:03:52;;;;;;;3.60;3.30;;;16.10;99.90;;;;;;5012433;28;20914;-60
2022/05/21 03:06:18;;;;;;;3.83;3.43;;;15.60;99.90;;;;;;5011567;28;20191;-59
2022/05/21 03:11:28;;;;;;;3.65;3.35;;;16.10;99.90;;;;;;5011921;28;20193;-59
2022/05/21 03:13:53;;;;;;;4.23;3.70;;;16.30;99.90;;;;;;5012251;28;20187;-59
2022/05/21 03:16:19;;;;;;;3.87;3.57;;;15.90;99.90;;;;;;5010694;28;20202;-59
2022/05/21 03:18:45;;;;;;;3.97;3.67;;;16.20;99.90;;;;;;5011322;28;20743;-59
2022/05/21 03:21:11;;;;;;;3.80;3.50;;;16.20;99.90;;;;;;5005795;28;20250;-59
2022/05/21 03:23:36;;;;;;;4.47;4.07;;;16.00;99.90;;;;;;5008303;28;20599;-60
2022/05/21 03:26:02;;;;;;;3.47;3.27;;;16.10;99.90;;;;;;5008751;28;20265;-60
2022/05/21 03:28:28;;;;;;;3.70;3.40;;;16.00;99.90;;;;;;5011521;28;21036;-59
2022/05/21 03:30:53;;;;;;;4.27;3.87;;;16.10;99.90;;;;;;5008538;28;20186;-60
2022/05/21 03:33:19;;;;;;;3.97;3.43;;;15.90;99.90;;;;;;5011705;28;20668;-60
2022/05/21 03:35:44;;;;;;;5.33;3.73;;;16.00;99.90;;;;;;5010028;28;20190;-60
2022/05/21 03:38:10;;;;;;;3.90;3.53;;;15.70;99.90;;;;;;5011284;28;20201;-60
2022/05/21 03:40:36;;;;;;;4.00;3.60;;;15.80;99.90;;;;;;5010863;28;20221;-59
2022/05/21 03:43:01;;;;;;;5.00;3.80;;;15.80;99.90;;;;;;5006815;28;20676;-59
2022/05/21 03:45:27;;;;;;;3.40;3.20;;;15.80;99.90;;;;;;5011021;28;20715;-60
2022/05/21 03:47:54;;;;;;;4.20;3.80;;;15.90;99.90;;;;;;5010767;28;20274;-59
2022/05/21 03:50:23;;;;;;;4.88;3.83;;;15.70;99.90;;;;;;5011434;28;20941;-59
2022/05/21 03:52:49;;;;;;;3.40;3.20;;;15.80;99.90;;;;;;5008104;28;20179;-59
2022/05/21 03:55:16;;;;;;;3.90;3.60;;;15.60;99.90;;;;;;5010486;28;20565;-59
2022/05/21 03:57:41;;;;;;;4.30;3.90;;;15.30;99.90;;;;;;5010755;28;20210;-60
2022/05/21 04:00:10;;;;;;;4.40;4.10;;;15.40;99.90;;;;;;5003781;28;20568;-53
2022/05/21 04:02:37;;;;;;;3.58;3.28;;;15.20;99.90;;;;;;5008143;28;20215;-53
2022/05/21 04:05:04;;;;;;;3.65;3.35;;;15.40;99.90;;;;;;5013603;28;20270;-53
2022/05/21 04:07:30;;;;;;;5.97;4.20;;;15.10;99.90;;;;;;5009698;28;20203;-54
2022/05/21 04:09:56;;;;;;;4.40;4.00;;;15.30;99.90;;;;;;5010093;28;20213;-54
2022/05/21 04:12:22;;;;;;;3.87;3.60;;;14.90;99.90;;;;;;5009949;28;20958;-53
2022/05/21 04:14:47;;;;;;;3.83;3.53;;;15.10;99.90;;;;;;5008897;28;20190;-55
2022/05/21 04:17:16;;;;;;;4.53;4.17;;;14.70;99.90;;;;;;5010665;28;20187;-54
2022/05/21 04:19:42;;;;;;;3.67;3.38;;;15.00;99.90;;;;;;5010150;28;20183;-54
2022/05/21 04:22:09;;;;;;;4.10;3.80;;;15.00;99.90;;;;;;5006570;28;20212;-54
2022/05/21 04:24:35;;;;;;;4.13;3.83;;;15.30;99.90;;;;;;5005558;28;20178;-56
2022/05/21 04:27:00;;;;;;;3.93;3.60;;;15.20;99.90;;;;;;5010449;28;20248;-54
2022/05/21 04:29:26;;;;;;;4.27;3.97;;;15.00;99.90;;;;;;5008566;28;20533;-53
2022/05/21 04:31:52;;;;;;;4.57;3.60;;;15.40;99.90;;;;;;5008447;28;20195;-53
2022/05/21 04:34:18;;;;;;;3.78;3.50;;;15.30;99.90;;;;;;5009053;28;20197;-54
2022/05/21 04:36:44;;;;;;;3.50;3.30;;;15.20;99.90;;;;;;5008485;28;20285;-54
2022/05/21 04:39:10;;;;;;;3.67;3.47;;;15.00;99.90;;;;;;5008735;28;20257;-53
2022/05/21 04:41:36;;;;;;;5.47;3.20;;;15.40;99.90;;;;;;5002054;28;20474;-53
2022/05/21 04:44:02;;;;;;;3.95;3.65;;;15.30;99.90;;;;;;5006669;28;20201;-53
2022/05/21 04:46:30;;;;;;;5.65;3.78;;;15.10;99.90;;;;;;5009053;28;20197;-54
2022/05/21 04:48:56;;;;;;;4.05;3.40;;;15.20;99.90;;;;;;5009311;28;20237;-54
2022/05/21 04:51:21;;;;;;;3.97;3.63;;;15.00;99.90;;;;;;5008951;28;20222;-54
2022/05/21 04:53:47;;;;;;;3.90;3.60;;;15.20;99.90;;;;;;5008239;28;20198;-54
2022/05/21 04:56:13;;;;;;;4.03;3.63;;;15.10;99.90;;;;;;5008885;28;20225;-54
2022/05/21 04:58:39;;;;;;;3.57;3.30;;;15.20;99.90;;;;;;5007784;28;20215;-54
2022/05/21 05:01:06;;;;;;;4.65;3.45;;;15.10;99.90;;;;;;5004316;28;20480;-53
2022/05/21 05:03:32;;;;;;;5.05;3.30;;;15.00;99.90;;;;;;5009507;28;20274;-53
2022/05/21 05:05:58;;;;;;;3.45;3.25;;;15.20;99.90;;;;;;5007280;28;20298;-54
2022/05/21 05:08:25;;;;;;;4.32;3.70;;;15.30;99.90;;;;;;5009512;28;20563;-54
2022/05/21 05:10:51;;;;;;;3.50;2.70;;;15.40;99.90;;;;;;5007844;28;20187;-54
2022/05/21 05:13:17;;;;;;;3.55;3.20;;;15.30;99.90;;;;;;5007511;28;20202;-55
2022/05/21 05:15:44;;;;;;;3.80;3.00;;;15.20;99.90;;;;;;5006805;28;20637;-54
2022/05/21 05:18:12;;;;;;;3.15;2.90;;;15.20;99.90;;;;;;5008253;28;20194;-53
2022/05/21 05:20:38;;;;;;;5.10;3.17;;;15.20;99.90;;;;;;5005922;28;20593;-53
2022/05/21 05:23:05;;;;;;;3.30;3.00;;;15.50;99.90;;;;;;5011002;28;20214;-54
2022/05/21 05:25:32;;;;;;;3.65;2.95;;;15.70;99.90;;;;;;5009522;28;20437;-53
2022/05/21 05:27:58;;;;;;;3.75;3.45;;;15.70;99.90;;;;;;5008651;28;20655;-53
2022/05/21 05:30:24;;;;;;;3.27;3.07;;;15.60;99.90;;;;;;5023673;28;20187;-53
2022/05/21 05:32:50;;;;;;;2.65;2.55;;;15.50;99.90;;;;;;5006255;28;21230;-53
2022/05/21 05:35:17;;;;;;;5.22;3.08;;;16.00;99.90;;;;;;5008584;28;20210;-54
2022/05/21 05:37:43;;;;;;;3.97;3.10;;;16.00;99.90;;;;;;5009305;28;20289;-54
2022/05/21 05:40:15;;;;;;;3.58;3.28;;;16.20;99.90;;;;;;5008683;28;20235;-53
2022/05/21 05:42:41;;;;;;;4.38;3.20;;;15.90;99.90;;;;;;5009132;28;20214;-53
2022/05/21 05:45:08;;;;;;;5.57;3.20;;;16.00;99.90;;;;;;5007440;28;20602;-53
2022/05/21 05:47:34;;;;;;;3.28;2.95;;;16.10;99.90;;;;;;5007847;28;20213;-54
2022/05/21 05:50:00;;;;;;;2.83;2.63;;;16.20;99.90;;;;;;5008184;28;20182;-53
2022/05/21 05:52:27;;;;;;;3.85;2.95;;;16.40;99.90;;;;;;5008977;28;20245;-53
2022/05/21 05:54:52;;;;;;;3.05;2.60;;;16.50;99.90;;;;;;5008328;28;20190;-54
2022/05/21 05:57:18;;;;;;;2.50;2.40;;;16.50;99.90;;;;;;5011838;28;20222;-53
2022/05/21 05:59:50;;;;;;;3.60;2.40;;;16.80;99.90;;;;;;5009925;28;20194;-52
2022/05/21 06:05:16;;;;;;;2.28;2.10;;;16.90;99.90;;;;;;5012788;28;20193;-53
2022/05/21 06:07:43;;;;;;;3.33;2.30;;;17.00;99.40;;;;;;5009144;28;20205;-53
2022/05/21 06:10:10;;;;;;;2.10;1.90;;;16.50;99.30;;;;;;5007446;28;20191;-59
2022/05/21 06:12:37;;;;;;;2.42;2.25;;;16.70;99.70;;;;;;5011293;28;20276;-61
2022/05/21 06:15:03;;;;;;;2.70;2.50;;;16.60;99.50;;;;;;5011792;28;20648;-60
2022/05/21 06:17:29;;;;;;;3.88;2.40;;;16.50;99.20;;;;;;5011606;28;20722;-60
2022/05/21 06:19:55;;;;;;;4.83;2.17;;;16.60;98.60;;;;;;5008279;28;20199;-60
2022/05/21 06:22:21;;;;;;;3.43;3.13;;;16.80;98.50;;;;;;5012308;28;20683;-60
2022/05/21 06:24:47;;;;;;;2.33;2.13;;;16.80;98.60;;;;;;5007860;28;20186;-59
2022/05/21 06:27:12;;;;;;;1.87;1.77;;;16.90;98.70;;;;;;5011302;28;20249;-58
2022/05/21 06:29:38;;;;;;;1.90;1.80;;;16.90;97.80;;;;;;5006126;28;20454;-60
2022/05/21 06:32:05;;;;;;;1.93;1.73;;;16.90;97.20;;;;;;5008809;28;20647;-60
2022/05/21 06:34:32;;;;;;;2.05;1.85;;;17.00;96.80;;;;;;5013329;28;20195;-60
2022/05/21 06:37:05;;;;;;;1.92;1.83;;;17.40;97.00;;;;;;5008256;28;20183;-61
2022/05/21 06:39:32;;;;;;;1.92;1.73;;;17.30;96.80;;;;;;5009165;28;20195;-61
2022/05/21 06:41:58;;;;;;;2.30;1.67;;;17.20;96.50;;;;;;5008438;28;20525;-66
2022/05/21 06:44:24;;;;;;;1.95;1.60;;;17.50;95.90;;;;;;5010920;28;20702;-65
2022/05/21 06:46:50;;;;;;;2.50;1.70;;;17.50;95.00;;;;;;5011694;28;20199;-67
2022/05/21 06:49:17;;;;;;;5.13;1.83;;;18.10;94.20;;;;;;5008778;28;20535;-65
2022/05/21 06:51:43;;;;;;;2.10;2.00;;;18.80;93.00;;;;;;5008104;28;20605;-65
2022/05/21 06:54:09;;;;;;;3.35;1.60;;;19.40;91.20;;;;;;5009126;28;20205;-65
2022/05/21 06:56:35;;;;;;;2.93;1.63;;;19.60;90.40;;;;;;5007447;28;20209;-66
2022/05/21 06:59:00;;;;;;;2.73;1.43;;;19.70;90.20;;;;;;5009503;28;20207;-69
2022/05/21 07:01:26;;;;;;;2.03;1.60;;;19.90;89.00;;;;;;5010439;28;20237;-70
2022/05/21 07:03:51;;;;;;;1.77;1.60;;;20.80;87.10;;;;;;5005219;28;20184;-72
2022/05/21 07:09:01;;;;;;;8.60;7.80;;;24.50;77.80;;;;;;5007034;28;20248;-71
2022/05/21 07:11:27;;;;;;;2.00;1.80;;;27.10;64.40;;;;;;5011803;28;20466;-70
2022/05/21 07:13:53;;;;;;;3.40;1.70;;;28.50;58.40;;;;;;5010081;28;20223;-71
2022/05/21 07:16:19;;;;;;;1.60;1.40;;;29.20;54.90;;;;;;5010267;28;20195;-70
2022/05/21 07:18:46;;;;;;;1.83;1.43;;;28.30;53.80;;;;;;5009857;28;20253;-72
2022/05/21 07:21:15;;;;;;;1.80;1.50;;;29.20;52.30;;;;;;5011147;28;20570;-70
2022/05/21 07:23:41;;;;;;;2.03;1.37;;;29.20;51.70;;;;;;5008646;28;20438;-72
2022/05/21 07:26:07;;;;;;;1.67;1.43;;;30.10;50.40;;;;;;5009459;28;20450;-68
2022/05/21 07:28:33;;;;;;;1.17;1.00;;;31.20;47.80;;;;;;5009381;28;20216;-68
2022/05/21 07:30:59;;;;;;;2.13;1.10;;;31.50;45.60;;;;;;5024902;28;20184;-69
2022/05/21 07:33:25;;;;;;;1.50;1.40;;;30.80;44.40;;;;;;5010968;28;20424;-68
2022/05/21 07:35:51;;;;;;;1.07;0.90;;;30.60;46.40;;;;;;5008693;28;20614;-68
2022/05/21 07:38:17;;;;;;;2.20;1.10;;;30.90;45.40;;;;;;5006474;28;20472;-67
2022/05/21 07:40:45;;;;;;;1.70;1.20;;;32.00;44.50;;;;;;5006723;28;20437;-67
2022/05/21 07:43:17;;;;;;;2.23;1.33;;;33.10;42.70;;;;;;5010806;28;20466;-68
2022/05/21 07:45:43;;;;;;;1.30;1.20;;;34.50;40.50;;;;;;5007267;28;20440;-68
2022/05/21 07:48:12;;;;;;;1.10;1.00;;;33.80;39.60;;;;;;5010441;28;21060;-67
2022/05/21 07:50:43;;;;;;;1.87;1.03;;;33.40;39.60;;;;;;5009535;28;20520;-68
2022/05/21 07:53:14;;;;;;;1.40;1.07;;;33.40;39.60;;;;;;5026409;28;20568;-68
2022/05/21 07:55:45;;;;;;;3.37;1.10;;;34.10;38.30;;;;;;5007105;28;20449;-68
2022/05/21 07:58:11;;;;;;;2.20;1.30;;;34.60;37.50;;;;;;5008468;28;20821;-68
2022/05/21 08:00:38;;;;;;;1.33;1.23;;;34.60;37.60;;;;;;5007857;28;20440;-68
2022/05/21 08:03:05;;;;;;;1.30;0.80;;;33.60;37.00;;;;;;5009813;28;20330;-68
2022/05/21 08:05:31;;;;;;;1.20;0.80;;;33.80;37.60;;;;;;5008281;28;20986;-70
2022/05/21 08:07:56;;;;;;;2.13;1.40;;;34.40;36.50;;;;;;5009227;28;20500;-69
2022/05/21 08:10:22;;;;;;;1.67;1.10;;;35.70;35.20;;;;;;5008659;28;20195;-68
2022/05/21 08:12:49;;;;;;;5.50;1.30;;;36.00;34.60;;;;;;5009715;28;20640;-68
2022/05/21 08:15:16;;;;;;;1.00;0.83;;;33.80;34.30;;;;;;5009014;28;20443;-69
2022/05/21 08:17:41;;;;;;;1.90;1.17;;;33.60;36.20;;;;;;5008120;28;20489;-68
2022/05/21 08:20:10;;;;;;;1.30;1.10;;;32.60;37.60;;;;;;5024419;28;20491;-68
2022/05/21 08:28:05;;;;;;;1.43;0.90;;;34.60;35.40;;;;;;5002822;28;20551;-69
2022/05/21 08:30:30;;;;;;;1.40;1.17;;;35.10;34.50;;;;;;5005764;28;20445;-69
2022/05/21 08:33:06;;;;;;;1.40;1.30;;;34.30;34.90;;;;;;5009724;28;20183;-67
2022/05/21 08:35:32;;;;;;;2.40;0.90;;;34.60;35.10;;;;;;5009534;28;20194;-69
2022/05/21 08:37:58;;;;;;;1.73;0.83;;;33.20;35.60;;;;;;4997695;28;20482;-67
2022/05/21 08:40:34;;;;;;;1.93;0.90;;;33.60;36.10;;;;;;5006581;28;20437;-69
2022/05/21 08:43:02;;;;;;;1.10;0.90;;;32.60;35.50;;;;;;5009971;28;20573;-68
2022/05/21 08:45:48;;;;;;;1.43;1.10;;;33.70;36.30;;;;;;5008494;28;20469;-69
2022/05/21 08:48:16;;;;;;;0.97;0.87;;;34.10;35.40;;;;;;5003080;28;20480;-70
2022/05/21 08:50:46;;;;;;;1.00;0.90;;;34.10;35.50;;;;;;5007746;28;20457;-69
2022/05/21 08:53:17;;;;;;;1.30;0.90;;;33.50;35.10;;;;;;5009574;28;20434;-69
2022/05/21 08:55:50;;;;;;;1.17;0.70;;;34.50;34.70;;;;;;5021875;28;20445;-68
2022/05/21 08:58:50;;;;;;;1.30;0.97;;;34.10;35.10;;;;;;5006869;28;20523;-69
2022/05/21 09:01:21;;;;;;;2.43;0.87;;;34.10;34.90;;;;;;5008730;28;20556;-68
2022/05/21 09:03:50;;;;;;;1.53;0.90;;;34.30;34.30;;;;;;5009349;28;20442;-69
2022/05/21 09:06:18;;;;;;;1.03;0.87;;;34.30;34.70;;;;;;5002585;28;20483;-68
2022/05/21 09:08:53;;;;;;;1.30;1.00;;;35.00;34.50;;;;;;5002181;28;20528;-69
2022/05/21 09:11:24;;;;;;;1.70;1.13;;;35.40;34.00;;;;;;5007720;28;21306;-67
2022/05/21 09:14:06;;;;;;;1.00;0.80;;;34.80;34.70;;;;;;5008866;28;20980;-68
2022/05/21 09:16:55;;;;;;;1.20;1.10;;;34.80;34.10;;;;;;5008108;28;20503;-68
2022/05/21 09:19:44;;;;;;;1.40;1.00;;;35.30;34.20;;;;;;5008308;28;20480;-67
2022/05/21 09:22:13;;;;;;;2.17;1.83;;;35.20;33.40;;;;;;5006203;28;21104;-68
2022/05/21 09:24:42;;;;;;;1.10;1.00;;;34.50;34.40;;;;;;5009128;28;21019;-67
2022/05/21 09:27:27;;;;;;;1.40;1.30;;;33.30;35.70;;;;;;5007816;28;20465;-67
2022/05/21 09:30:11;;;;;;;1.27;1.00;;;33.00;36.60;;;;;;5008553;28;20499;-67
2022/05/21 09:32:37;;;;;;;1.70;1.23;;;32.50;36.60;;;;;;5011365;28;20594;-68
2022/05/21 09:35:12;;;;;;;1.27;1.10;;;31.20;38.40;;;;;;5012726;28;20440;-68
2022/05/21 09:37:39;;;;;;;3.50;3.20;;;31.60;39.40;;;;;;5008247;28;20819;-68
2022/05/21 09:40:34;;;;;;;1.10;1.00;;;32.20;38.30;;;;;;5010702;28;20445;-68
2022/05/21 09:45:46;;;;;;;1.87;1.30;;;32.00;37.80;;;;;;5008218;28;20494;-68
2022/05/21 09:48:13;;;;;;;1.63;0.90;;;33.30;36.90;;;;;;5011808;28;20476;-68
2022/05/21 09:50:43;;;;;;;1.17;1.03;;;33.50;36.90;;;;;;5011990;28;20823;-67
2022/05/21 09:53:38;;;;;;;1.60;1.30;;;33.60;36.20;;;;;;5011798;28;20476;-67
2022/05/21 09:56:06;;;;;;;7.70;1.00;;;33.30;35.60;;;;;;5010025;28;20497;-68
2022/05/21 09:58:36;;;;;;;1.47;1.00;;;32.70;37.60;;;;;;5010059;28;20928;-68
2022/05/21 10:01:03;;;;;;;1.30;1.20;;;31.40;37.40;;;;;;5010899;28;20883;-68
2022/05/21 10:03:37;;;;;;;3.07;1.00;;;30.20;40.20;;;;;;5007114;28;20859;-68
2022/05/21 10:06:17;;;;;;;1.87;1.13;;;29.50;41.00;;;;;;5007893;28;20466;-69
2022/05/21 10:11:31;;;;;;;1.20;1.10;;;30.70;40.10;;;;;;5012165;28;20739;-68
2022/05/21 10:14:06;;;;;;;2.13;1.30;;;30.80;40.80;;;;;;5010955;28;20435;-67
2022/05/21 10:16:39;;;;;;;1.83;1.17;;;31.50;40.60;;;;;;5010658;28;20448;-68
2022/05/21 10:19:42;;;;;;;2.40;1.13;;;31.40;39.40;;;;;;5010270;28;20518;-68
2022/05/21 10:22:08;;;;;;;1.87;0.97;;;30.00;40.60;;;;;;5009081;28;20848;-68
2022/05/21 10:25:04;;;;;;;1.20;1.10;;;29.40;42.80;;;;;;5011010;28;20448;-67
2022/05/21 10:27:54;;;;;;;1.30;1.00;;;28.90;43.80;;;;;;5007006;28;20208;-67
2022/05/21 10:30:37;;;;;;;1.93;1.13;;;27.70;45.90;;;;;;5009983;28;20495;-68
2022/05/21 10:33:24;;;;;;;1.30;1.20;;;26.40;48.10;;;;;;5010512;28;20433;-67
2022/05/21 10:36:04;;;;;;;1.50;1.07;;;26.00;49.10;;;;;;5009380;28;21003;-68
2022/05/21 10:38:42;;;;;;;1.77;1.47;;;25.50;50.30;;;;;;5010539;28;20471;-68
2022/05/21 10:41:28;;;;;;;1.80;1.00;;;25.40;50.80;;;;;;5008803;28;20594;-68
2022/05/21 10:43:58;;;;;;;2.33;1.30;;;25.90;50.40;;;;;;5011481;28;20458;-68
2022/05/21 10:46:41;;;;;;;2.03;1.83;;;26.10;50.80;;;;;;5011012;28;20495;-67
2022/05/21 10:49:29;;;;;;;1.53;1.00;;;26.50;50.50;;;;;;5008758;28;20530;-69
2022/05/21 10:52:15;;;;;;;1.37;1.27;;;26.30;49.80;;;;;;5010168;28;20803;-68
2022/05/21 10:55:05;;;;;;;2.50;1.60;;;26.70;50.40;;;;;;5009949;28;20476;-69
2022/05/21 10:57:49;;;;;;;2.00;1.20;;;27.70;48.40;;;;;;5010609;28;20566;-68
2022/05/21 11:00:36;;;;;;;1.07;0.83;;;29.30;45.70;;;;;;5005287;28;20454;-69
2022/05/21 11:03:20;;;;;;;1.80;1.70;;;30.50;43.90;;;;;;5010052;28;20981;-69
2022/05/21 11:06:07;;;;;;;2.00;1.20;;;31.10;41.10;;;;;;5008899;28;20443;-67
2022/05/21 11:08:54;;;;;;;1.17;1.07;;;30.80;42.80;;;;;;5010327;28;20464;-68
2022/05/21 11:11:50;;;;;;;1.17;1.07;;;31.70;41.80;;;;;;5010836;28;20889;-68
2022/05/21 11:14:26;;;;;;;1.40;1.10;;;31.20;40.50;;;;;;5018440;28;20485;-68
2022/05/21 11:17:08;;;;;;;1.93;1.20;;;31.80;40.80;;;;;;5008296;28;20459;-68
2022/05/21 11:20:03;;;;;;;3.03;1.17;;;32.90;39.70;;;;;;5010115;28;20857;-68
2022/05/21 11:22:39;;;;;;;2.37;1.07;;;32.40;38.60;;;;;;5006135;28;20885;-69
2022/05/21 11:25:22;;;;;;;1.57;1.10;;;32.40;39.80;;;;;;5009911;28;20446;-68
2022/05/21 11:27:57;;;;;;;1.87;1.50;;;30.80;39.90;;;;;;5009310;28;20461;-68
2022/05/21 11:30:23;;;;;;;1.27;1.17;;;31.70;40.60;;;;;;5006876;28;20460;-68
2022/05/21 11:38:31;;;;;;;1.90;1.30;;;30.80;41.60;;;;;;5009403;28;20466;-68
2022/05/21 11:47:13;;;;;;;1.57;1.17;;;29.20;43.50;;;;;;5010329;28;20439;-68
2022/05/21 11:49:50;;;;;;;1.47;1.37;;;28.90;44.20;;;;;;5005159;28;20437;-68
2022/05/21 11:52:28;;;;;;;2.23;1.20;;;27.70;45.00;;;;;;5010085;28;20529;-68
2022/05/21 11:54:53;;;;;;;1.83;0.90;;;27.10;47.40;;;;;;5009086;28;20955;-67
2022/05/21 11:57:46;;;;;;;2.60;1.43;;;26.50;47.60;;;;;;5009567;28;20480;-67
2022/05/21 12:00:17;;;;;;;2.40;1.50;;;26.20;48.50;;;;;;5005707;28;20270;-67
2022/05/21 12:03:06;;;;;;;2.27;1.30;;;25.80;49.20;;;;;;5009845;28;20509;-68
2022/05/21 12:05:38;;;;;;;1.70;1.60;;;25.80;50.90;;;;;;5009611;28;20523;-68
2022/05/21 12:08:15;;;;;;;2.97;1.33;;;25.90;50.00;;;;;;5009466;28;20949;-68
2022/05/21 12:10:53;;;;;;;2.03;1.40;;;25.70;49.40;;;;;;5008436;28;20528;-69
2022/05/21 12:13:39;;;;;;;1.47;1.33;;;25.50;50.20;;;;;;5007984;28;20435;-68
2022/05/21 12:16:16;;;;;;;1.40;1.30;;;25.30;50.20;;;;;;5012394;28;20469;-68
2022/05/21 12:18:49;;;;;;;2.20;1.40;;;25.30;50.80;;;;;;5006675;28;20466;-68
2022/05/21 12:21:44;;;;;;;2.50;1.37;;;25.30;51.30;;;;;;5008488;28;20963;-68
2022/05/21 12:24:33;;;;;;;1.57;1.20;;;25.40;50.30;;;;;;5008033;28;20484;-67
2022/05/21 12:27:21;;;;;;;2.33;1.30;;;25.30;50.20;;;;;;5009014;28;21022;-68
2022/05/21 12:29:48;;;;;;;1.47;1.37;;;25.10;50.30;;;;;;5003375;28;20445;-67
2022/05/21 12:32:28;;;;;;;2.17;1.97;;;24.80;51.10;;;;;;5008957;28;20439;-67
2022/05/21 12:35:27;;;;;;;4.90;1.60;;;24.80;51.50;;;;;;5005807;28;20458;-67
2022/05/21 12:38:04;;;;;;;2.23;1.27;;;24.90;51.30;;;;;;5009368;28;20549;-67
2022/05/21 12:40:58;;;;;;;4.70;1.40;;;25.10;50.80;;;;;;5023110;28;20450;-68
2022/05/21 12:43:24;;;;;;;3.47;1.70;;;25.10;50.70;;;;;;5005064;28;20474;-68
2022/05/21 12:45:52;;;;;;;2.03;1.80;;;25.00;50.40;;;;;;5007649;28;20789;-68
2022/05/21 12:48:34;;;;;;;1.87;1.53;;;25.20;50.50;;;;;;5009668;28;20478;-68
2022/05/21 12:51:07;;;;;;;2.80;1.30;;;25.10;50.50;;;;;;5009088;28;20902;-67
2022/05/21 12:53:38;;;;;;;1.37;1.23;;;25.00;50.50;;;;;;5010251;28;21005;-66
2022/05/21 12:56:24;;;;;;;2.73;1.97;;;25.00;49.40;;;;;;5008380;28;20461;-66
2022/05/21 12:59:10;;;;;;;1.80;1.53;;;24.80;49.50;;;;;;5006234;28;20986;-66
2022/05/21 13:01:44;;;;;;;1.60;1.30;;;24.70;50.20;;;;;;5009164;28;20552;-66
2022/05/21 13:04:33;;;;;;;4.30;1.30;;;24.70;50.10;;;;;;5009006;28;20449;-67
2022/05/21 13:07:25;;;;;;;1.80;1.27;;;25.00;50.90;;;;;;5015502;28;20445;-66
2022/05/21 13:09:59;;;;;;;2.13;1.20;;;24.70;51.20;;;;;;5013733;28;20437;-66
2022/05/21 13:12:33;;;;;;;0.90;0.90;;;24.70;50.20;;;;;;5015835;28;20459;-67
2022/05/21 13:14:58;;;;;;;2.27;1.47;;;24.80;49.80;;;;;;5013474;28;20441;-66
2022/05/21 13:17:59;;;;;;;2.00;1.27;;;24.90;49.90;;;;;;5016551;28;20450;-66
2022/05/21 13:20:36;;;;;;;2.20;1.07;;;25.00;50.10;;;;;;5009167;28;20187;-66
2022/05/21 13:23:26;;;;;;;1.70;1.50;;;24.90;49.90;;;;;;5011322;28;20469;-67
2022/05/21 13:25:55;;;;;;;3.57;1.50;;;25.10;48.90;;;;;;5014588;28;20441;-66
2022/05/21 13:28:24;;;;;;;2.77;1.63;;;25.00;49.50;;;;;;5015667;28;20457;-66
2022/05/21 13:30:51;;;;;;;1.70;1.57;;;25.20;49.40;;;;;;5014833;28;20458;-66
2022/05/21 13:33:43;;;;;;;3.93;1.50;;;25.30;48.20;;;;;;5016309;28;20526;-66
2022/05/21 13:36:13;;;;;;;4.50;1.50;;;25.40;47.60;;;;;;5014879;28;20542;-67
2022/05/21 13:38:43;;;;;;;2.23;1.07;;;25.30;47.30;;;;;;5012206;28;20458;-67